Gansevoort, NY

10:26 AM EST on November 26, 2014 (GMT -0500)
Gansevoort, New York | Change Station
CLOSE
Current Station
Personal Weather Station
Location: Gansevoort, NY
Elevation: 280 ft
Nearby Weather Stations
Active Advisory: Winter Storm Warning

Elev 280 ft 43.19 °N, 73.70 °W | Updated 49 seconds ago

Overcast
Overcast
37.3 °F
Feels Like 37 °F
N
1.0
Wind Variable Wind from South
Gusts 1.0 mph

Today
High -- | Low -- °F
--% Chance of Precip.
Yesterday
High -- | Low -- °F
Precip. -- in
7:01 AM 4:22 PM
Waxing Crescent, 20% visible
Pressure 30.22 in
Visibility 10.0 miles
Clouds Overcast 10000 ft
Windchill 37 °F
Dew Point 25 °F
Humidity 66%
Rainfall -999.00 in
Snow Depth Not available.
UV 0 out of 12
Pollen .10 out of 12
Air Quality Not available.
Flu Activity Not available.
METAR KGFL 261453Z AUTO 01008KT 10SM OVC100 03/M05 A3019 RMK AO2 SLP232 T00281050 58001

More Conditions Fewer Conditions

Pressure 30.22 in
Visibility 10.0 miles
Clouds Overcast 10000 ft
Windchill 37 °F
Dew Point 25 °F
Humidity 66%
Rainfall -999.00 in
Snow Depth Not available.
UV 0 out of 12
Pollen .10 out of 12
Air Quality Not available.
Flu Activity Not available.
METAR KGFL 261453Z AUTO 01008KT 10SM OVC100 03/M05 A3019 RMK AO2 SLP232 T00281050 58001

More Conditions Fewer Conditions

10-Day Weather Forecast

Almanac

Astronomy

Nov. 26, 2014 Rise Set
Actual Time
Civil Twilight
Nautical Twilight
Astronomical Twilight
Moon
Length of Visible Light
Length of Day
Tomorrow will be .
, % of the Moon is Illuminated

Today's Extremes

State Highs State Lows

Community

WunderPhotos

Upload Photos

1,773,771 photos uploaded!

WunderBlogs® & News

Nearby

Air Quality

  Air Quality AQ Index Pollutant
Not available.

Snow Depth

Station Depth Elevation

Earthquake Activity

City Distance Mag. Time & Date
Minimum magnitude displayed is 2.5.

Coastal Water Temperatures

Place Temperature

Nearby Weather Stations